createdAt,value
2023-05-25T10:56:08.307Z,11968.00
2023-05-25T10:57:08.267Z,12480.00
2023-05-25T10:58:08.289Z,11844.00
2023-05-25T10:59:08.258Z,12396.00
2023-05-25T11:00:08.307Z,13164.00
2023-05-25T11:01:08.378Z,12756.00
2023-05-25T11:02:09.232Z,12960.00
2023-05-25T11:03:08.221Z,12312.00
2023-05-25T11:04:08.225Z,11944.00
2023-05-25T11:07:37.708Z,11568.00
2023-05-25T11:08:37.692Z,11596.00
2023-05-25T11:09:37.672Z,12200.00
2023-05-25T11:10:37.685Z,13160.00
2023-05-25T11:11:37.653Z,14220.00
2023-05-25T11:12:37.623Z,14456.00
2023-05-25T11:13:39.840Z,14332.00
2023-05-25T11:14:37.602Z,13756.00
2023-05-25T11:15:37.591Z,13564.00
2023-05-25T11:16:37.689Z,12324.00
2023-05-25T11:17:37.608Z,12536.00
2023-05-25T11:18:37.565Z,12544.00
2023-05-25T11:19:37.524Z,12576.00
2023-05-25T11:20:37.561Z,11580.00
2023-05-25T11:21:37.541Z,11432.00
2023-05-25T11:22:37.518Z,11804.00
2023-05-25T11:23:37.499Z,12276.00
2023-05-25T11:24:37.496Z,12396.00
2023-05-25T11:25:37.516Z,12564.00
2023-05-25T11:26:37.467Z,12724.00
2023-05-25T11:27:37.475Z,12324.00
2023-05-25T11:28:37.444Z,11616.00
2023-05-25T11:29:37.428Z,10940.00
2023-05-25T11:30:37.452Z,10804.00
2023-05-25T11:31:41.368Z,11084.00
2023-05-25T11:32:37.431Z,11424.00
2023-05-25T11:33:37.355Z,11456.00
2023-05-25T11:34:37.366Z,11892.00
2023-05-25T11:35:37.456Z,12088.00
2023-05-25T11:36:37.345Z,12152.00
2023-05-25T11:37:37.334Z,12848.00
2023-05-25T11:38:37.301Z,12732.00
2023-05-25T11:39:37.280Z,12076.00
2023-05-25T11:40:40.228Z,11296.00
2023-05-25T11:41:37.288Z,10936.00
2023-05-25T11:42:37.255Z,10664.00
2023-05-25T11:43:37.299Z,10268.00
2023-05-25T11:44:37.236Z,9960.00
2023-05-25T11:45:37.263Z,9620.00
2023-05-25T11:46:37.240Z,9480.00
2023-05-25T11:47:38.161Z,10000.00
2023-05-25T11:48:37.207Z,10692.00
2023-05-25T11:49:37.184Z,11304.00
2023-05-25T11:50:37.153Z,12160.00
2023-05-25T11:51:37.173Z,12944.00
2023-05-25T11:52:37.158Z,13200.00
2023-05-25T11:53:37.155Z,13224.00
2023-05-25T11:54:37.132Z,13376.00
2023-05-25T11:55:37.102Z,14212.00
2023-05-25T11:56:37.114Z,14744.00
2023-05-25T11:57:37.075Z,14556.00
2023-05-25T11:58:37.067Z,14420.00
2023-05-25T11:59:37.044Z,13432.00
2023-05-25T12:00:37.068Z,13480.00
2023-05-25T12:01:37.028Z,13636.00
2023-05-25T12:02:37.144Z,14512.00
2023-05-25T12:03:37.110Z,14132.00
2023-05-25T12:04:37.109Z,12876.00
2023-05-25T12:05:37.045Z,12584.00
2023-05-25T12:06:37.257Z,12240.00
2023-05-25T12:07:36.960Z,11796.00
2023-05-25T12:11:42.355Z,11408.00
2023-05-25T12:12:42.338Z,11436.00
2023-05-25T12:13:42.345Z,11424.00
2023-05-25T12:14:42.336Z,11476.00
2023-05-25T12:15:42.542Z,11600.00
2023-05-25T12:16:42.323Z,11444.00
2023-05-25T12:17:42.331Z,11416.00
2023-05-25T12:18:42.283Z,11520.00
2023-05-25T12:19:42.265Z,11644.00
2023-05-25T12:20:42.503Z,11468.00
2023-05-25T12:21:42.245Z,11392.00
2023-05-25T12:22:42.229Z,11340.00
2023-05-25T12:23:42.190Z,11188.00
2023-05-25T12:24:42.207Z,11016.00
2023-05-25T12:25:50.200Z,11140.00
2023-05-25T12:26:42.202Z,11068.00
2023-05-25T12:27:42.182Z,10704.00
2023-05-25T12:28:42.143Z,9720.00
2023-05-25T12:30:08.129Z,10884.00
2023-05-25T12:31:08.126Z,11228.00
2023-05-25T12:32:08.093Z,11276.00
2023-05-25T12:33:08.098Z,11072.00
2023-05-25T12:34:08.052Z,10804.00
2023-05-25T12:35:08.049Z,10840.00
2023-05-25T12:36:08.074Z,10980.00
2023-05-25T12:37:08.024Z,11040.00
2023-05-25T12:38:07.987Z,11236.00
2023-05-25T12:39:07.979Z,11368.00
2023-05-25T12:40:15.776Z,11332.00
2023-05-25T12:41:08.019Z,11220.00
2023-05-25T12:42:07.947Z,11128.00
2023-05-25T12:43:07.977Z,10976.00
2023-05-25T12:44:07.932Z,10772.00
2023-05-25T12:45:07.916Z,10560.00
2023-05-25T12:46:08.032Z,10352.00
2023-05-25T12:47:07.964Z,10260.00
2023-05-25T12:48:07.938Z,10224.00
2023-05-25T12:49:07.867Z,10256.00
2023-05-25T12:50:07.865Z,10320.00
2023-05-25T12:51:07.872Z,10396.00
2023-05-25T12:52:07.846Z,10460.00
2023-05-25T12:53:07.850Z,10572.00
2023-05-25T12:54:07.824Z,10660.00
2023-05-25T12:55:07.796Z,10740.00
2023-05-25T12:56:07.804Z,10864.00
2023-05-25T12:57:07.778Z,11020.00
2023-05-25T12:58:07.820Z,11152.00
2023-05-25T12:59:07.748Z,11308.00
2023-05-25T13:00:07.781Z,11464.00
2023-05-25T13:01:07.725Z,11668.00
2023-05-25T13:02:07.849Z,11848.00
2023-05-25T13:03:07.980Z,12044.00
2023-05-25T13:04:07.694Z,12268.00
2023-05-25T13:05:07.725Z,12568.00
2023-05-25T13:06:07.676Z,12880.00
2023-05-25T13:07:07.660Z,13188.00
2023-05-25T13:08:07.658Z,13644.00
2023-05-25T13:09:07.658Z,14176.00
2023-05-25T13:10:07.820Z,14836.00
2023-05-25T13:11:07.624Z,15768.00
2023-05-25T13:12:07.616Z,17344.00
2023-05-25T13:13:07.602Z,19456.00
2023-05-25T13:14:07.611Z,21888.00
2023-05-25T13:15:07.578Z,25280.00
2023-05-25T13:16:07.597Z,30688.00
2023-05-25T13:17:07.559Z,38784.00
2023-05-25T13:18:07.779Z,45888.00
2023-05-25T13:19:07.541Z,49600.00
2023-05-25T13:20:07.652Z,52384.00
2023-05-25T13:21:07.578Z,53568.00
2023-05-25T13:22:07.509Z,54528.00
2023-05-25T13:23:07.500Z,55712.00
2023-05-25T13:24:07.503Z,56416.00
2023-05-25T13:25:07.486Z,57056.00
2023-05-25T13:26:07.472Z,57792.00
2023-05-25T13:27:07.461Z,58688.00
2023-05-25T13:28:07.480Z,60160.00
2023-05-25T13:29:07.456Z,62912.00
2023-05-25T13:30:07.432Z,64576.00
2023-05-25T13:31:07.419Z,64544.00
2023-05-25T13:32:07.428Z,65888.00
2023-05-25T13:33:07.481Z,66720.00
2023-05-25T13:34:07.408Z,67456.00
2023-05-25T13:35:07.399Z,67584.00
2023-05-25T13:36:07.379Z,68128.00
2023-05-25T13:37:07.372Z,68480.00
2023-05-25T13:38:07.374Z,69312.00
2023-05-25T13:39:07.408Z,69504.00
2023-05-25T13:40:07.350Z,70208.00
2023-05-25T13:41:07.363Z,70656.00
2023-05-25T13:42:07.332Z,70368.00
2023-05-25T13:43:07.335Z,70016.00
2023-05-25T13:44:07.346Z,69984.00
2023-05-25T13:45:07.309Z,69312.00
2023-05-25T13:46:08.822Z,69024.00
2023-05-25T13:47:07.380Z,68736.00
2023-05-25T13:48:07.393Z,68896.00
2023-05-25T13:49:07.294Z,69696.00
2023-05-25T13:50:07.282Z,70176.00
2023-05-25T13:51:07.276Z,70592.00
2023-05-25T13:52:07.258Z,70368.00
2023-05-25T13:53:07.252Z,69152.00
2023-05-25T13:54:07.282Z,69088.00
2023-05-25T13:55:07.252Z,69184.00
2023-05-25T13:56:07.232Z,69472.00
2023-05-25T13:57:07.224Z,69056.00
2023-05-25T13:58:07.223Z,69088.00
2023-05-25T13:59:07.212Z,68224.00
2023-05-25T14:00:07.222Z,67872.00
2023-05-25T14:01:07.230Z,67008.00
2023-05-25T14:02:07.218Z,65824.00
2023-05-25T14:03:07.295Z,65824.00
2023-05-25T14:04:07.287Z,65280.00
2023-05-25T14:05:07.242Z,64896.00
2023-05-25T14:06:07.182Z,64832.00
2023-05-25T14:07:07.178Z,64608.00
2023-05-25T14:08:07.169Z,64416.00
2023-05-25T14:09:07.168Z,64288.00
2023-05-25T14:10:07.844Z,63744.00
2023-05-25T14:11:07.162Z,63840.00
2023-05-25T14:12:07.164Z,63776.00
2023-05-25T14:13:07.137Z,63648.00
2023-05-25T14:14:11.501Z,63008.00
2023-05-25T14:15:07.124Z,61952.00
2023-05-25T14:16:07.143Z,61984.00
2023-05-25T14:17:07.105Z,62496.00
2023-05-25T14:18:07.145Z,62848.00
2023-05-25T14:19:07.095Z,62272.00
2023-05-25T14:20:07.197Z,61472.00
2023-05-25T14:21:07.100Z,60384.00
2023-05-25T14:23:07.073Z,60192.00
2023-05-25T14:24:07.076Z,59648.00
2023-05-25T14:25:07.063Z,58656.00
2023-05-25T14:26:07.057Z,57888.00
2023-05-25T14:27:07.193Z,57856.00
2023-05-25T14:28:07.042Z,57664.00
2023-05-25T14:29:07.038Z,57312.00
2023-05-25T14:30:07.038Z,57504.00
2023-05-25T14:31:07.056Z,57376.00
2023-05-25T14:32:07.041Z,56448.00
2023-05-25T14:33:07.125Z,55616.00
2023-05-25T14:34:07.014Z,54688.00
2023-05-25T14:35:07.006Z,54240.00
2023-05-25T14:36:07.003Z,53984.00
2023-05-25T14:37:06.992Z,53888.00
2023-05-25T14:38:07.003Z,53568.00
2023-05-25T14:39:06.997Z,53120.00
2023-05-25T14:40:06.982Z,52960.00
2023-05-25T14:41:06.980Z,52352.00
2023-05-25T14:42:06.972Z,52352.00
2023-05-25T14:43:06.977Z,52000.00
2023-05-25T14:44:06.969Z,51808.00
2023-05-25T14:45:08.716Z,51488.00
2023-05-25T14:46:06.957Z,51360.00
2023-05-25T14:47:07.037Z,51424.00
2023-05-25T14:48:16.174Z,51008.00
2023-05-25T14:49:06.947Z,50944.00
2023-05-25T14:50:06.936Z,51360.00
2023-05-25T14:51:06.951Z,51648.00
2023-05-25T14:52:06.937Z,52000.00
2023-05-25T14:53:06.916Z,53248.00
2023-05-25T14:54:06.930Z,54304.00
2023-05-25T14:55:06.909Z,54400.00
2023-05-25T14:56:08.978Z,54752.00
2023-05-25T14:57:06.913Z,56512.00
2023-05-25T14:58:06.891Z,58752.00
2023-05-25T14:59:06.897Z,61984.00
2023-05-25T15:00:06.882Z,66560.00
2023-05-25T15:01:06.874Z,68416.00
2023-05-25T15:02:06.937Z,68320.00
2023-05-25T15:03:06.932Z,68352.00
2023-05-25T15:04:06.972Z,67008.00
2023-05-25T15:05:06.859Z,66752.00
2023-05-25T15:06:06.853Z,67296.00
2023-05-25T15:07:06.861Z,67136.00
2023-05-25T15:08:06.844Z,66464.00
2023-05-25T15:09:06.862Z,66144.00
2023-05-25T15:10:06.832Z,66272.00
2023-05-25T15:11:06.827Z,65472.00
2023-05-25T15:12:06.829Z,64832.00
2023-05-25T15:13:06.817Z,64608.00
2023-05-25T15:14:06.826Z,62944.00
2023-05-25T15:15:06.819Z,61536.00
2023-05-25T15:16:06.825Z,62048.00
2023-05-25T15:17:06.798Z,62336.00
2023-05-25T15:18:06.831Z,62176.00
2023-05-25T15:19:07.302Z,63456.00
2023-05-25T15:20:06.816Z,64864.00
2023-05-25T15:21:06.781Z,65632.00
2023-05-25T15:22:06.780Z,64416.00
2023-05-25T15:23:06.773Z,62336.00
2023-05-25T15:24:06.781Z,61760.00
2023-05-25T15:25:06.768Z,60320.00
2023-05-25T15:26:06.772Z,57568.00
2023-05-25T15:27:06.759Z,57376.00
2023-05-25T15:28:06.759Z,57216.00
2023-05-25T15:29:06.803Z,55264.00
2023-05-25T15:30:06.752Z,54496.00
2023-05-25T15:31:06.746Z,54464.00
2023-05-25T15:32:06.768Z,54368.00
2023-05-25T15:33:06.796Z,55328.00
2023-05-25T15:34:06.734Z,53248.00
2023-05-25T15:35:06.717Z,50624.00
2023-05-25T15:36:06.729Z,51200.00
2023-05-25T15:37:06.706Z,51328.00
2023-05-25T15:38:06.720Z,50688.00
2023-05-25T15:39:06.694Z,50656.00
2023-05-25T15:40:06.706Z,50048.00
2023-05-25T15:41:06.693Z,49248.00
2023-05-25T15:42:06.697Z,46688.00
2023-05-25T15:43:06.694Z,45280.00
2023-05-25T15:44:06.678Z,44672.00
2023-05-25T15:45:06.670Z,44480.00
2023-05-25T15:46:06.700Z,45216.00
2023-05-25T15:47:06.679Z,45920.00
2023-05-25T15:48:06.679Z,46080.00
2023-05-25T15:49:06.653Z,45504.00
2023-05-25T15:50:06.651Z,43744.00
2023-05-25T15:51:06.643Z,42912.00
2023-05-25T15:52:06.677Z,43552.00
2023-05-25T15:53:06.642Z,43488.00
2023-05-25T15:54:06.650Z,43168.00
2023-05-25T15:55:06.626Z,43200.00
2023-05-25T15:56:06.633Z,42336.00
2023-05-25T15:57:06.645Z,41472.00
2023-05-25T15:58:06.623Z,40960.00
2023-05-25T15:59:06.613Z,40320.00
2023-05-25T16:00:06.609Z,40192.00
2023-05-25T16:01:06.654Z,40480.00
2023-05-25T16:02:06.867Z,40768.00
2023-05-25T16:03:06.624Z,40192.00
2023-05-25T16:04:06.633Z,39328.00
2023-05-25T16:05:06.587Z,39360.00
2023-05-25T16:06:06.612Z,38720.00
2023-05-25T16:07:06.574Z,37056.00
2023-05-25T16:08:06.587Z,36128.00
2023-05-25T16:09:06.592Z,36512.00
2023-05-25T16:10:06.561Z,36032.00
2023-05-25T16:11:06.577Z,35616.00
2023-05-25T16:12:06.556Z,34944.00
2023-05-25T16:13:06.558Z,34208.00
2023-05-25T16:14:06.542Z,33984.00
2023-05-25T16:15:06.538Z,34176.00
2023-05-25T16:16:06.546Z,33664.00
2023-05-25T16:17:06.530Z,33312.00
2023-05-25T16:18:06.542Z,32832.00
2023-05-25T16:19:06.572Z,33216.00
2023-05-25T16:20:06.567Z,34400.00
2023-05-25T16:21:06.521Z,34656.00
2023-05-25T16:22:06.506Z,34016.00
2023-05-25T16:23:06.499Z,33408.00
2023-05-25T16:24:06.514Z,32960.00
2023-05-25T16:25:06.497Z,32320.00
2023-05-25T16:26:06.496Z,31456.00
2023-05-25T16:27:06.521Z,30976.00
2023-05-25T16:28:06.486Z,30944.00
2023-05-25T16:29:06.493Z,30624.00
2023-05-25T16:30:06.487Z,30656.00
2023-05-25T16:31:06.470Z,30624.00
2023-05-25T16:32:06.539Z,30176.00
2023-05-25T16:33:06.520Z,29920.00
2023-05-25T16:34:06.480Z,29920.00
2023-05-25T16:35:06.450Z,30144.00
2023-05-25T16:36:06.456Z,30240.00
2023-05-25T16:37:06.451Z,29792.00
2023-05-25T16:38:06.446Z,29920.00
2023-05-25T16:39:06.446Z,30336.00
2023-05-25T16:40:06.450Z,30432.00
2023-05-25T16:41:06.427Z,30336.00
2023-05-25T16:42:06.424Z,30368.00
2023-05-25T16:43:06.413Z,29920.00
2023-05-25T16:44:06.445Z,28800.00
2023-05-25T16:45:06.404Z,28576.00
2023-05-25T16:46:06.466Z,28640.00
2023-05-25T16:47:06.392Z,28640.00
2023-05-25T16:48:06.478Z,28032.00
2023-05-25T16:49:06.383Z,27616.00
2023-05-25T16:50:06.415Z,27744.00
2023-05-25T16:51:06.370Z,28096.00
2023-05-25T16:52:06.405Z,27904.00
2023-05-25T16:53:06.402Z,27680.00
2023-05-25T16:54:06.417Z,27232.00
2023-05-25T16:55:06.361Z,26624.00
2023-05-25T16:56:06.364Z,25952.00
2023-05-25T16:57:06.365Z,26304.00
2023-05-25T16:58:06.380Z,26848.00
2023-05-25T16:59:06.330Z,26656.00
2023-05-25T17:00:06.353Z,25792.00
2023-05-25T17:01:06.360Z,25184.00
2023-05-25T17:02:06.366Z,24736.00
2023-05-25T17:03:06.418Z,24928.00
2023-05-25T17:04:06.476Z,24640.00
2023-05-25T17:05:06.322Z,23744.00
2023-05-25T17:06:06.304Z,23104.00
2023-05-25T17:07:06.305Z,22560.00
2023-05-25T17:08:06.415Z,22560.00
2023-05-25T17:09:06.279Z,22368.00
2023-05-25T17:10:06.280Z,21856.00
2023-05-25T17:11:06.279Z,21504.00
2023-05-25T17:12:06.266Z,21024.00
2023-05-25T17:13:06.300Z,20512.00
2023-05-25T17:14:06.259Z,20288.00
2023-05-25T17:15:06.259Z,20288.00
2023-05-25T17:16:06.289Z,20032.00
2023-05-25T17:17:06.242Z,20064.00
2023-05-25T17:18:06.256Z,19520.00
2023-05-25T17:19:06.215Z,16096.00
2023-05-25T17:20:06.240Z,12524.00
2023-05-25T17:21:06.288Z,13292.00
2023-05-25T17:22:06.195Z,12036.00
2023-05-25T17:23:06.187Z,10588.00
2023-05-25T17:24:06.187Z,10132.00
2023-05-25T17:25:49.017Z,7604.00
